Topaz, Utah
Current Conditions -  °F | °C
As of 4:35 PM on Saturday 20 Dec 2014 (Local Time) from KDTA Reporting Station
Overcast Overcast  
Wind Chill: 38°   Ceiling: 7000
Heat Index: 41°   Visibility: 10mi
Dew Point: 34°   Wind: 6mph
Humidity: 75%   Direction: 120°ESE
Pressure: 30.06"   Gusts: NA
Location:  39.4463°N, 112.85°W
Report Text: KDTA 202335Z AUTO 12005KT 10SM SCT055 OVC070 05/01 A3006 RMK AO1 T00520011
Loading
Personal Weather Stations






























Interactive Weather Map New forecast layout! Learn more

10-Day Weather Forecast

Advertisements
Track Severe Weather on mobile